WetterOnline ( https://www.wetteronline.de )

Wetter aktuell Beeskow

Aktuelles Wetter: Lindenberg b. Beeskow (104m)

6-stündlich | Neueste Meldungen
Ortszeit Temperatur Wetter
Do, 18.07. 8:00 16.4° C wolkenlos
Do, 18.07. 2:00 16.5° C leicht bewölkt
Mi, 17.07. 20:00 20.4° C leicht bewölkt
Mi, 17.07. 14:00 20.9° C wolkig
Mi, 17.07. 8:00 13.8° C leicht bewölkt
Mi, 17.07. 2:00 14.4° C wolkig
Di, 16.07. 20:00 18.9° C leicht bewölkt
Di, 16.07. 14:00 17.5° C bewölkt
Ortszeit Temperatur Wetter
Do, 18.07. 12:30 22.4° C leicht bewölkt
Do, 18.07. 12:20 22.4° C leicht bewölkt
Do, 18.07. 12:10 22.4° C leicht bewölkt
Do, 18.07. 12:00 22.0° C leicht bewölkt
Do, 18.07. 11:50 22.0° C bewölkt
Do, 18.07. 11:40 22.7° C bewölkt
Do, 18.07. 11:30 22.7° C leicht bewölkt
Do, 18.07. 11:00 22.1° C leicht bewölkt
Do, 18.07. 10:30 21.9° C fast wolkenlos
Do, 18.07. 10:00 21.0° C wolkenlos
Do, 18.07. 9:30 20.2° C wolkenlos
Ortszeit Relative Feuchte Sichtweite
Do, 18.07. 8:00 69% 40 km
Do, 18.07. 2:00 67% 50 km
Mi, 17.07. 20:00 50% 50 km
Mi, 17.07. 14:00 53% 25 km
Mi, 17.07. 8:00 85% 15 km
Mi, 17.07. 2:00 88% 35 km
Di, 16.07. 20:00 63% 45 km
Di, 16.07. 14:00 64% 50 km
Ortszeit Relative Feuchte Sichtweite
Do, 18.07. 12:30 44% 45 km
Do, 18.07. 12:20 44% -
Do, 18.07. 12:10 44% -
Do, 18.07. 12:00 44% 45 km
Do, 18.07. 11:50 44% -
Do, 18.07. 11:40 47% -
Do, 18.07. 11:30 46% 45 km
Do, 18.07. 11:00 46% 45 km
Do, 18.07. 10:30 51% 45 km
Do, 18.07. 10:00 50% 40 km
Do, 18.07. 9:30 57% 40 km
Ortszeit Niederschlagsmenge Niederschlagsart
Do, 18.07. 8:00 0.0 l/m2 in 12 Std. -
Do, 18.07. 2:00 0.0 l/m2 in 6 Std. -
Mi, 17.07. 20:00 0.0 l/m2 in 12 Std. -
Mi, 17.07. 14:00 0.0 l/m2 in 6 Std. -
Mi, 17.07. 8:00 0.0 l/m2 in 12 Std. -
Mi, 17.07. 2:00 0.0 l/m2 in 6 Std. -
Di, 16.07. 20:00 0.1 l/m2 in 12 Std. -
Di, 16.07. 14:00 0.1 l/m2 in 6 Std. Regen
Ortszeit Niederschlagsmenge Niederschlagsart
Do, 18.07. 12:30 0.0 l/m2 in 1 Std. -
Do, 18.07. 12:20 keine Meldung -
Do, 18.07. 12:10 keine Meldung -
Do, 18.07. 12:00 0.0 l/m2 in 1 Std. -
Do, 18.07. 11:50 keine Meldung -
Do, 18.07. 11:40 keine Meldung -
Do, 18.07. 11:30 0.1 l/m2 in 1 Std. -
Do, 18.07. 11:00 0.0 l/m2 in 1 Std. -
Do, 18.07. 10:30 0.0 l/m2 in 1 Std. -
Do, 18.07. 10:00 0.0 l/m2 in 1 Std. -
Do, 18.07. 9:30 0.0 l/m2 in 1 Std. -
Ortszeit Stärke Spitze Richtung
km/h Bft. km/h Grad Sektor
Do, 18.07. 8:00 9 2 20 80° O
Do, 18.07. 2:00 7 2 18 60° NO
Mi, 17.07. 20:00 4 1 29 40° NO
Mi, 17.07. 14:00 13 3 31 290° W
Mi, 17.07. 8:00 13 3 22 290° W
Mi, 17.07. 2:00 13 3 28 280° W
Di, 16.07. 20:00 19 3 37 260° W
Di, 16.07. 14:00 18 3 36 270° W
Ortszeit Stärke Spitze Richtung
km/h Bft. km/h Grad Sektor
Do, 18.07. 12:30 7 2 14 300° NW
Do, 18.07. 12:20 7 2 - 300° NW
Do, 18.07. 12:10 7 2 - 310° NW
Do, 18.07. 12:00 9 2 15 290° W
Do, 18.07. 11:50 9 2 - 290° W
Do, 18.07. 11:40 7 2 - 320° NW
Do, 18.07. 11:30 6 1 11 170° S
Do, 18.07. 11:00 6 1 13 110° O
Do, 18.07. 10:30 4 1 14 70° O
Do, 18.07. 10:00 6 1 13 90° O
Do, 18.07. 9:30 6 1 13 80° O
Ortszeit Untergrenze Bedeckung Gattung
total tief tief mittel hoch
Do, 18.07. 8:00 - 0/8 0/8 - - -
Do, 18.07. 2:00 7500 m 7/8 0/8 - - Cs
Mi, 17.07. 20:00 1800 m 4/8 3/8 Cu - Ci
Mi, 17.07. 14:00 1140 m 6/8 4/8 Cu - Ci
Mi, 17.07. 8:00 240 m 4/8 4/8 Cu - -
Mi, 17.07. 2:00 1110 m 6/8 6/8 Sc - -
Di, 16.07. 20:00 990 m 3/8 1/8 Cu - Ci
Di, 16.07. 14:00 810 m 7/8 7/8 Cu - -
Ortszeit Bedeckungsgrad in Achtel und Wolkenuntergrenze
Do, 18.07. 12:30 3(1500m)
Do, 18.07. 12:20 1(1500m) 2(1800m)
Do, 18.07. 12:10 3(1500m) 4(1800m)
Do, 18.07. 12:00 3(1500m)
Do, 18.07. 11:50 6(1500m) 7(1800m)
Do, 18.07. 11:40 7(1500m) 7(1800m)
Do, 18.07. 11:30 3(1470m) 5(1800m)
Do, 18.07. 11:00 2(1350m)
Do, 18.07. 10:30 1(1200m)
Do, 18.07. 10:00 keine Wolken
Do, 18.07. 9:30 keine Wolken
Ortszeit Luftdruck NN (hPa) Tendenz (hPa in 3 Std.)
Do, 18.07. 8:00 1013 + 0,1
Do, 18.07. 2:00 1014 + 0,2
Mi, 17.07. 20:00 1013 - 0,6
Mi, 17.07. 14:00 1014 - 0,4
Mi, 17.07. 8:00 1015 + 0,3
Mi, 17.07. 2:00 1015 + 0,7
Di, 16.07. 20:00 1013 - 0,5
Di, 16.07. 14:00 1014 - 0,1
Ortszeit Luftdruck NN (hPa) Tendenz (hPa in 3 Std.)
Do, 18.07. 12:30 1013 - 0,6
Do, 18.07. 12:20 1013 keine Meldung
Do, 18.07. 12:10 1013 keine Meldung
Do, 18.07. 12:00 1013 - 0,4
Do, 18.07. 11:50 1013 keine Meldung
Do, 18.07. 11:40 1013 keine Meldung
Do, 18.07. 11:30 1013 - 0,1
Do, 18.07. 11:00 1013 0,0
Do, 18.07. 10:30 1013 0,0
Do, 18.07. 10:00 1013 + 0,1
Do, 18.07. 9:30 1013 + 0,2
Ortszeit Schneehöhe (cm)
Do, 18.07. 8:00 0
Do, 18.07. 2:00 0
Mi, 17.07. 20:00 0
Mi, 17.07. 14:00 0
Mi, 17.07. 8:00 0
Mi, 17.07. 2:00 0
Di, 16.07. 20:00 0
Di, 16.07. 14:00 0
Ortszeit Schneehöhe (cm)
Do, 18.07. 12:30 -
Do, 18.07. 12:20 -
Do, 18.07. 12:10 -
Do, 18.07. 12:00 -
Do, 18.07. 11:50 -
Do, 18.07. 11:40 -
Do, 18.07. 11:30 -
Do, 18.07. 11:00 -
Do, 18.07. 10:30 -
Do, 18.07. 10:00 -
Do, 18.07. 9:30 -
Link zu dieser Seite / Seite empfehlen

Das Wetter in ...